sensor_id;sensor_type;location;lat;lon;timestamp;P1;durP1;ratioP1;P2;durP2;ratioP2
68250;SDS011;55066;51.560;4.642;2023-07-22T00:00:36;13.17;;;6.13;;
68250;SDS011;55066;51.560;4.642;2023-07-22T00:03:02;14.43;;;6.07;;
68250;SDS011;55066;51.560;4.642;2023-07-22T00:05:28;13.73;;;6.03;;
68250;SDS011;55066;51.560;4.642;2023-07-22T00:07:54;16.17;;;5.85;;
68250;SDS011;55066;51.560;4.642;2023-07-22T00:10:22;16.60;;;5.80;;
68250;SDS011;55066;51.560;4.642;2023-07-22T00:12:55;14.97;;;6.00;;
68250;SDS011;55066;51.560;4.642;2023-07-22T00:15:24;16.42;;;6.38;;
68250;SDS011;55066;51.560;4.642;2023-07-22T00:17:52;14.88;;;5.82;;
68250;SDS011;55066;51.560;4.642;2023-07-22T00:20:18;13.32;;;6.18;;
68250;SDS011;55066;51.560;4.642;2023-07-22T00:22:45;15.23;;;6.67;;
68250;SDS011;55066;51.560;4.642;2023-07-22T00:25:10;17.25;;;6.85;;
68250;SDS011;55066;51.560;4.642;2023-07-22T00:27:41;15.57;;;6.63;;
68250;SDS011;55066;51.560;4.642;2023-07-22T00:30:09;14.75;;;6.40;;
68250;SDS011;55066;51.560;4.642;2023-07-22T00:32:37;14.65;;;6.57;;
68250;SDS011;55066;51.560;4.642;2023-07-22T00:35:05;16.90;;;6.47;;
68250;SDS011;55066;51.560;4.642;2023-07-22T00:37:31;15.13;;;6.87;;
68250;SDS011;55066;51.560;4.642;2023-07-22T00:39:58;13.75;;;6.28;;
68250;SDS011;55066;51.560;4.642;2023-07-22T00:42:24;14.20;;;6.38;;
68250;SDS011;55066;51.560;4.642;2023-07-22T00:44:51;15.73;;;6.53;;
68250;SDS011;55066;51.560;4.642;2023-07-22T00:47:19;13.77;;;6.37;;
68250;SDS011;55066;51.560;4.642;2023-07-22T00:49:47;19.33;;;7.00;;
68250;SDS011;55066;51.560;4.642;2023-07-22T00:52:17;17.02;;;6.50;;
68250;SDS011;55066;51.560;4.642;2023-07-22T00:54:44;15.30;;;6.43;;
68250;SDS011;55066;51.560;4.642;2023-07-22T00:57:12;22.90;;;7.15;;
68250;SDS011;55066;51.560;4.642;2023-07-22T00:59:41;16.40;;;6.27;;
68250;SDS011;55066;51.560;4.642;2023-07-22T01:02:07;17.75;;;7.00;;
68250;SDS011;55066;51.560;4.642;2023-07-22T01:04:34;19.02;;;6.85;;
68250;SDS011;55066;51.560;4.642;2023-07-22T01:07:01;16.00;;;6.40;;
68250;SDS011;55066;51.560;4.642;2023-07-22T01:09:40;20.90;;;7.30;;
68250;SDS011;55066;51.560;4.642;2023-07-22T01:12:08;16.08;;;7.03;;
68250;SDS011;55066;51.560;4.642;2023-07-22T01:14:39;16.80;;;6.78;;
68250;SDS011;55066;51.560;4.642;2023-07-22T01:17:10;17.08;;;7.45;;
68250;SDS011;55066;51.560;4.642;2023-07-22T01:19:37;17.10;;;6.40;;
68250;SDS011;55066;51.560;4.642;2023-07-22T01:22:03;20.45;;;7.07;;
68250;SDS011;55066;51.560;4.642;2023-07-22T01:24:32;14.70;;;6.18;;
68250;SDS011;55066;51.560;4.642;2023-07-22T01:26:58;15.93;;;6.72;;
68250;SDS011;55066;51.560;4.642;2023-07-22T01:29:24;15.33;;;6.73;;
68250;SDS011;55066;51.560;4.642;2023-07-22T01:31:51;18.50;;;7.32;;
68250;SDS011;55066;51.560;4.642;2023-07-22T01:34:18;16.20;;;6.57;;
68250;SDS011;55066;51.560;4.642;2023-07-22T01:36:45;16.92;;;6.78;;
68250;SDS011;55066;51.560;4.642;2023-07-22T01:39:12;16.67;;;6.80;;
68250;SDS011;55066;51.560;4.642;2023-07-22T01:41:44;16.33;;;6.88;;
68250;SDS011;55066;51.560;4.642;2023-07-22T01:44:12;19.20;;;7.75;;
68250;SDS011;55066;51.560;4.642;2023-07-22T01:46:38;15.02;;;6.57;;
68250;SDS011;55066;51.560;4.642;2023-07-22T01:49:07;19.27;;;7.30;;
68250;SDS011;55066;51.560;4.642;2023-07-22T01:51:36;15.47;;;7.40;;
68250;SDS011;55066;51.560;4.642;2023-07-22T01:54:09;18.83;;;7.25;;
68250;SDS011;55066;51.560;4.642;2023-07-22T01:56:36;16.77;;;7.40;;
68250;SDS011;55066;51.560;4.642;2023-07-22T01:59:03;15.65;;;7.05;;
68250;SDS011;55066;51.560;4.642;2023-07-22T02:01:29;17.85;;;7.03;;
68250;SDS011;55066;51.560;4.642;2023-07-22T02:03:58;15.30;;;6.73;;
68250;SDS011;55066;51.560;4.642;2023-07-22T02:06:25;18.63;;;7.45;;
68250;SDS011;55066;51.560;4.642;2023-07-22T02:08:54;14.52;;;7.03;;
68250;SDS011;55066;51.560;4.642;2023-07-22T02:11:19;18.87;;;7.23;;
68250;SDS011;55066;51.560;4.642;2023-07-22T02:13:47;17.08;;;7.18;;
68250;SDS011;55066;51.560;4.642;2023-07-22T02:16:12;16.90;;;7.10;;
68250;SDS011;55066;51.560;4.642;2023-07-22T02:18:41;15.18;;;7.28;;
68250;SDS011;55066;51.560;4.642;2023-07-22T02:21:07;18.30;;;7.22;;
68250;SDS011;55066;51.560;4.642;2023-07-22T02:23:32;15.73;;;6.90;;
68250;SDS011;55066;51.560;4.642;2023-07-22T02:25:58;15.47;;;6.80;;
68250;SDS011;55066;51.560;4.642;2023-07-22T02:28:24;18.63;;;7.15;;
68250;SDS011;55066;51.560;4.642;2023-07-22T02:30:54;16.20;;;6.72;;
68250;SDS011;55066;51.560;4.642;2023-07-22T02:33:20;16.43;;;6.70;;
68250;SDS011;55066;51.560;4.642;2023-07-22T02:35:47;17.42;;;7.35;;
68250;SDS011;55066;51.560;4.642;2023-07-22T02:38:14;24.10;;;7.45;;
68250;SDS011;55066;51.560;4.642;2023-07-22T02:40:39;19.57;;;7.17;;
68250;SDS011;55066;51.560;4.642;2023-07-22T02:43:06;20.92;;;7.82;;
68250;SDS011;55066;51.560;4.642;2023-07-22T02:45:32;17.97;;;7.10;;
68250;SDS011;55066;51.560;4.642;2023-07-22T02:47:59;21.38;;;7.80;;
68250;SDS011;55066;51.560;4.642;2023-07-22T02:50:26;19.10;;;7.53;;
68250;SDS011;55066;51.560;4.642;2023-07-22T02:52:53;20.40;;;8.07;;
68250;SDS011;55066;51.560;4.642;2023-07-22T02:55:22;19.70;;;7.45;;
68250;SDS011;55066;51.560;4.642;2023-07-22T02:57:54;18.50;;;7.77;;
68250;SDS011;55066;51.560;4.642;2023-07-22T03:00:20;18.00;;;7.90;;
68250;SDS011;55066;51.560;4.642;2023-07-22T03:02:52;19.90;;;8.25;;
68250;SDS011;55066;51.560;4.642;2023-07-22T03:05:19;20.60;;;8.25;;
68250;SDS011;55066;51.560;4.642;2023-07-22T03:07:47;17.50;;;8.20;;
68250;SDS011;55066;51.560;4.642;2023-07-22T03:10:13;20.80;;;7.93;;
68250;SDS011;55066;51.560;4.642;2023-07-22T03:12:40;22.58;;;8.98;;
68250;SDS011;55066;51.560;4.642;2023-07-22T03:15:07;20.92;;;8.35;;
68250;SDS011;55066;51.560;4.642;2023-07-22T03:17:35;21.93;;;8.53;;
68250;SDS011;55066;51.560;4.642;2023-07-22T03:20:07;22.92;;;9.07;;
68250;SDS011;55066;51.560;4.642;2023-07-22T03:22:41;24.70;;;9.50;;
68250;SDS011;55066;51.560;4.642;2023-07-22T03:25:11;22.83;;;9.75;;
68250;SDS011;55066;51.560;4.642;2023-07-22T03:27:39;23.05;;;9.77;;
68250;SDS011;55066;51.560;4.642;2023-07-22T03:30:06;22.10;;;9.47;;
68250;SDS011;55066;51.560;4.642;2023-07-22T03:32:36;28.15;;;10.63;;
68250;SDS011;55066;51.560;4.642;2023-07-22T03:35:04;23.30;;;9.38;;
68250;SDS011;55066;51.560;4.642;2023-07-22T03:37:30;27.20;;;10.52;;
68250;SDS011;55066;51.560;4.642;2023-07-22T03:39:57;22.05;;;9.73;;
68250;SDS011;55066;51.560;4.642;2023-07-22T03:42:26;22.60;;;9.27;;
68250;SDS011;55066;51.560;4.642;2023-07-22T03:44:52;30.35;;;10.80;;
68250;SDS011;55066;51.560;4.642;2023-07-22T03:47:18;27.30;;;9.27;;
68250;SDS011;55066;51.560;4.642;2023-07-22T03:49:45;21.63;;;8.43;;
68250;SDS011;55066;51.560;4.642;2023-07-22T03:52:11;22.10;;;8.80;;
68250;SDS011;55066;51.560;4.642;2023-07-22T03:54:40;21.38;;;9.30;;
68250;SDS011;55066;51.560;4.642;2023-07-22T03:57:06;22.38;;;9.00;;
68250;SDS011;55066;51.560;4.642;2023-07-22T03:59:33;22.17;;;10.00;;
68250;SDS011;55066;51.560;4.642;2023-07-22T04:01:59;24.40;;;9.35;;
68250;SDS011;55066;51.560;4.642;2023-07-22T04:04:25;21.63;;;9.00;;
68250;SDS011;55066;51.560;4.642;2023-07-22T04:06:51;22.20;;;9.17;;
68250;SDS011;55066;51.560;4.642;2023-07-22T04:09:16;21.88;;;9.02;;
68250;SDS011;55066;51.560;4.642;2023-07-22T04:11:45;22.98;;;8.75;;
68250;SDS011;55066;51.560;4.642;2023-07-22T04:14:15;25.33;;;9.53;;
68250;SDS011;55066;51.560;4.642;2023-07-22T04:16:41;19.15;;;8.48;;
68250;SDS011;55066;51.560;4.642;2023-07-22T04:19:07;21.40;;;9.40;;
68250;SDS011;55066;51.560;4.642;2023-07-22T04:21:32;20.30;;;8.13;;
68250;SDS011;55066;51.560;4.642;2023-07-22T04:24:00;25.15;;;9.15;;
68250;SDS011;55066;51.560;4.642;2023-07-22T04:26:30;22.10;;;8.98;;
68250;SDS011;55066;51.560;4.642;2023-07-22T04:28:56;22.57;;;9.80;;
68250;SDS011;55066;51.560;4.642;2023-07-22T04:31:25;24.02;;;9.45;;
68250;SDS011;55066;51.560;4.642;2023-07-22T04:33:51;22.17;;;9.30;;
68250;SDS011;55066;51.560;4.642;2023-07-22T04:36:20;25.13;;;10.05;;
68250;SDS011;55066;51.560;4.642;2023-07-22T04:38:49;20.33;;;9.37;;
68250;SDS011;55066;51.560;4.642;2023-07-22T04:41:15;23.35;;;9.32;;
68250;SDS011;55066;51.560;4.642;2023-07-22T04:43:40;23.30;;;9.40;;
68250;SDS011;55066;51.560;4.642;2023-07-22T04:46:07;25.90;;;9.47;;
68250;SDS011;55066;51.560;4.642;2023-07-22T04:48:34;21.20;;;8.65;;
68250;SDS011;55066;51.560;4.642;2023-07-22T04:51:02;23.08;;;9.43;;
68250;SDS011;55066;51.560;4.642;2023-07-22T04:53:30;22.05;;;9.23;;
68250;SDS011;55066;51.560;4.642;2023-07-22T04:55:58;23.80;;;9.73;;
68250;SDS011;55066;51.560;4.642;2023-07-22T04:58:25;27.93;;;9.43;;
68250;SDS011;55066;51.560;4.642;2023-07-22T05:00:52;21.50;;;9.25;;
68250;SDS011;55066;51.560;4.642;2023-07-22T05:03:21;22.35;;;9.50;;
68250;SDS011;55066;51.560;4.642;2023-07-22T05:06:08;24.27;;;9.70;;
68250;SDS011;55066;51.560;4.642;2023-07-22T05:08:33;25.30;;;8.75;;
68250;SDS011;55066;51.560;4.642;2023-07-22T05:10:59;20.13;;;8.55;;
68250;SDS011;55066;51.560;4.642;2023-07-22T05:13:26;21.00;;;9.40;;
68250;SDS011;55066;51.560;4.642;2023-07-22T05:15:52;22.58;;;8.70;;
68250;SDS011;55066;51.560;4.642;2023-07-22T05:18:18;23.33;;;9.30;;
68250;SDS011;55066;51.560;4.642;2023-07-22T05:20:54;20.63;;;8.88;;
68250;SDS011;55066;51.560;4.642;2023-07-22T05:23:20;24.23;;;9.52;;
68250;SDS011;55066;51.560;4.642;2023-07-22T05:25:50;23.48;;;9.18;;
68250;SDS011;55066;51.560;4.642;2023-07-22T05:28:18;19.03;;;9.07;;
68250;SDS011;55066;51.560;4.642;2023-07-22T05:30:44;26.02;;;9.27;;
68250;SDS011;55066;51.560;4.642;2023-07-22T05:33:11;25.05;;;9.25;;
68250;SDS011;55066;51.560;4.642;2023-07-22T05:35:37;21.77;;;8.97;;
68250;SDS011;55066;51.560;4.642;2023-07-22T05:38:02;23.63;;;9.63;;
68250;SDS011;55066;51.560;4.642;2023-07-22T05:40:29;22.77;;;9.40;;
68250;SDS011;55066;51.560;4.642;2023-07-22T05:42:55;23.83;;;9.70;;
68250;SDS011;55066;51.560;4.642;2023-07-22T05:45:21;24.17;;;9.05;;
68250;SDS011;55066;51.560;4.642;2023-07-22T05:47:47;28.50;;;9.73;;
68250;SDS011;55066;51.560;4.642;2023-07-22T05:50:12;26.80;;;9.63;;
68250;SDS011;55066;51.560;4.642;2023-07-22T05:52:40;21.77;;;9.40;;
68250;SDS011;55066;51.560;4.642;2023-07-22T05:55:06;27.58;;;9.30;;
68250;SDS011;55066;51.560;4.642;2023-07-22T05:57:33;21.88;;;9.13;;
68250;SDS011;55066;51.560;4.642;2023-07-22T06:00:00;27.00;;;9.32;;
68250;SDS011;55066;51.560;4.642;2023-07-22T06:02:37;25.97;;;9.30;;
68250;SDS011;55066;51.560;4.642;2023-07-22T06:05:05;23.83;;;8.77;;
68250;SDS011;55066;51.560;4.642;2023-07-22T06:07:31;20.77;;;8.65;;
68250;SDS011;55066;51.560;4.642;2023-07-22T06:09:56;21.40;;;9.63;;
68250;SDS011;55066;51.560;4.642;2023-07-22T06:12:23;29.37;;;9.07;;
68250;SDS011;55066;51.560;4.642;2023-07-22T06:14:48;22.77;;;9.07;;
68250;SDS011;55066;51.560;4.642;2023-07-22T06:17:15;24.45;;;8.68;;
68250;SDS011;55066;51.560;4.642;2023-07-22T06:19:40;19.93;;;8.43;;
68250;SDS011;55066;51.560;4.642;2023-07-22T06:22:06;20.95;;;8.73;;
68250;SDS011;55066;51.560;4.642;2023-07-22T06:24:31;23.53;;;8.77;;
68250;SDS011;55066;51.560;4.642;2023-07-22T06:26:58;22.77;;;9.25;;
68250;SDS011;55066;51.560;4.642;2023-07-22T06:29:25;22.80;;;8.50;;
68250;SDS011;55066;51.560;4.642;2023-07-22T06:32:04;22.83;;;9.93;;
68250;SDS011;55066;51.560;4.642;2023-07-22T06:34:34;23.85;;;9.10;;
68250;SDS011;55066;51.560;4.642;2023-07-22T06:37:00;29.02;;;8.95;;
68250;SDS011;55066;51.560;4.642;2023-07-22T06:39:33;26.53;;;8.83;;
68250;SDS011;55066;51.560;4.642;2023-07-22T06:42:00;21.83;;;8.57;;
68250;SDS011;55066;51.560;4.642;2023-07-22T06:44:25;23.23;;;8.53;;
68250;SDS011;55066;51.560;4.642;2023-07-22T06:46:51;23.58;;;8.68;;
68250;SDS011;55066;51.560;4.642;2023-07-22T06:49:16;24.13;;;8.70;;
68250;SDS011;55066;51.560;4.642;2023-07-22T06:51:43;20.95;;;8.55;;
68250;SDS011;55066;51.560;4.642;2023-07-22T06:54:09;22.17;;;8.60;;
68250;SDS011;55066;51.560;4.642;2023-07-22T06:56:36;21.52;;;9.07;;
68250;SDS011;55066;51.560;4.642;2023-07-22T06:59:02;18.47;;;8.00;;
68250;SDS011;55066;51.560;4.642;2023-07-22T07:01:28;20.17;;;8.70;;
68250;SDS011;55066;51.560;4.642;2023-07-22T07:03:54;19.43;;;8.80;;
68250;SDS011;55066;51.560;4.642;2023-07-22T07:06:20;20.63;;;8.32;;
68250;SDS011;55066;51.560;4.642;2023-07-22T07:08:46;19.58;;;8.30;;
68250;SDS011;55066;51.560;4.642;2023-07-22T07:11:15;17.48;;;8.02;;
68250;SDS011;55066;51.560;4.642;2023-07-22T07:13:42;22.80;;;8.03;;
68250;SDS011;55066;51.560;4.642;2023-07-22T07:49:17;15.20;;;6.90;;
68250;SDS011;55066;51.560;4.642;2023-07-22T07:57:11;13.80;;;6.30;;
68250;SDS011;55066;51.560;4.642;2023-07-22T07:59:37;14.33;;;6.67;;
68250;SDS011;55066;51.560;4.642;2023-07-22T08:02:02;17.87;;;6.40;;
68250;SDS011;55066;51.560;4.642;2023-07-22T08:04:29;13.05;;;5.88;;
68250;SDS011;55066;51.560;4.642;2023-07-22T08:06:54;13.73;;;6.00;;
68250;SDS011;55066;51.560;4.642;2023-07-22T08:09:20;13.50;;;5.23;;
68250;SDS011;55066;51.560;4.642;2023-07-22T08:11:46;13.90;;;5.15;;
68250;SDS011;55066;51.560;4.642;2023-07-22T08:14:15;13.23;;;5.23;;
68250;SDS011;55066;51.560;4.642;2023-07-22T08:16:42;10.57;;;4.80;;
68250;SDS011;55066;51.560;4.642;2023-07-22T08:19:07;10.83;;;4.80;;
68250;SDS011;55066;51.560;4.642;2023-07-22T08:21:33;13.13;;;4.80;;
68250;SDS011;55066;51.560;4.642;2023-07-22T08:23:59;11.57;;;4.55;;
68250;SDS011;55066;51.560;4.642;2023-07-22T08:26:25;9.10;;;4.60;;
68250;SDS011;55066;51.560;4.642;2023-07-22T08:28:50;10.93;;;4.57;;
68250;SDS011;55066;51.560;4.642;2023-07-22T08:31:16;12.93;;;4.57;;
68250;SDS011;55066;51.560;4.642;2023-07-22T08:33:41;14.50;;;4.73;;
68250;SDS011;55066;51.560;4.642;2023-07-22T08:36:06;10.45;;;4.80;;
68250;SDS011;55066;51.560;4.642;2023-07-22T08:38:32;12.93;;;4.63;;
68250;SDS011;55066;51.560;4.642;2023-07-22T08:40:58;10.50;;;5.30;;
68250;SDS011;55066;51.560;4.642;2023-07-22T08:43:23;12.47;;;4.77;;
68250;SDS011;55066;51.560;4.642;2023-07-22T08:45:51;9.80;;;4.38;;
68250;SDS011;55066;51.560;4.642;2023-07-22T08:48:17;10.88;;;4.63;;
68250;SDS011;55066;51.560;4.642;2023-07-22T08:50:51;9.95;;;4.00;;
68250;SDS011;55066;51.560;4.642;2023-07-22T08:53:18;8.20;;;3.97;;
68250;SDS011;55066;51.560;4.642;2023-07-22T08:55:44;9.73;;;3.72;;
68250;SDS011;55066;51.560;4.642;2023-07-22T08:58:10;7.65;;;3.85;;
68250;SDS011;55066;51.560;4.642;2023-07-22T09:00:37;10.03;;;4.07;;
68250;SDS011;55066;51.560;4.642;2023-07-22T09:03:03;9.80;;;4.00;;
68250;SDS011;55066;51.560;4.642;2023-07-22T09:05:31;15.45;;;4.07;;
68250;SDS011;55066;51.560;4.642;2023-07-22T09:07:58;8.80;;;3.55;;
68250;SDS011;55066;51.560;4.642;2023-07-22T09:10:24;10.98;;;4.10;;
68250;SDS011;55066;51.560;4.642;2023-07-22T09:12:52;8.73;;;3.57;;
68250;SDS011;55066;51.560;4.642;2023-07-22T09:15:18;10.73;;;4.00;;
68250;SDS011;55066;51.560;4.642;2023-07-22T09:17:44;8.17;;;4.00;;
68250;SDS011;55066;51.560;4.642;2023-07-22T09:20:13;8.55;;;3.90;;
68250;SDS011;55066;51.560;4.642;2023-07-22T09:22:43;10.85;;;3.95;;
68250;SDS011;55066;51.560;4.642;2023-07-22T09:25:18;7.32;;;3.72;;
68250;SDS011;55066;51.560;4.642;2023-07-22T09:27:51;10.60;;;4.18;;
68250;SDS011;55066;51.560;4.642;2023-07-22T09:30:21;10.30;;;4.00;;
68250;SDS011;55066;51.560;4.642;2023-07-22T09:32:59;8.32;;;3.70;;
68250;SDS011;55066;51.560;4.642;2023-07-22T09:35:47;8.30;;;3.80;;
68250;SDS011;55066;51.560;4.642;2023-07-22T09:38:14;7.30;;;3.03;;
68250;SDS011;55066;51.560;4.642;2023-07-22T09:40:48;9.93;;;3.70;;
68250;SDS011;55066;51.560;4.642;2023-07-22T09:43:13;8.20;;;2.97;;
68250;SDS011;55066;51.560;4.642;2023-07-22T09:45:38;12.47;;;3.27;;
68250;SDS011;55066;51.560;4.642;2023-07-22T09:48:04;8.27;;;3.50;;
68250;SDS011;55066;51.560;4.642;2023-07-22T09:50:31;6.53;;;3.00;;
68250;SDS011;55066;51.560;4.642;2023-07-22T09:52:57;9.60;;;3.40;;
68250;SDS011;55066;51.560;4.642;2023-07-22T09:55:25;6.05;;;2.90;;
68250;SDS011;55066;51.560;4.642;2023-07-22T09:57:54;8.50;;;3.50;;
68250;SDS011;55066;51.560;4.642;2023-07-22T10:00:28;9.32;;;3.25;;
68250;SDS011;55066;51.560;4.642;2023-07-22T10:02:59;5.60;;;3.30;;
68250;SDS011;55066;51.560;4.642;2023-07-22T10:05:26;10.05;;;3.85;;
68250;SDS011;55066;51.560;4.642;2023-07-22T10:07:53;8.23;;;3.45;;
68250;SDS011;55066;51.560;4.642;2023-07-22T10:10:21;6.70;;;3.90;;
68250;SDS011;55066;51.560;4.642;2023-07-22T10:12:50;9.27;;;4.80;;
68250;SDS011;55066;51.560;4.642;2023-07-22T10:15:16;5.28;;;3.03;;
68250;SDS011;55066;51.560;4.642;2023-07-22T10:17:43;7.70;;;2.70;;
68250;SDS011;55066;51.560;4.642;2023-07-22T10:20:10;5.78;;;2.95;;
68250;SDS011;55066;51.560;4.642;2023-07-22T10:22:43;7.97;;;2.83;;
68250;SDS011;55066;51.560;4.642;2023-07-22T10:25:10;7.10;;;2.88;;
68250;SDS011;55066;51.560;4.642;2023-07-22T10:27:38;6.93;;;2.83;;
68250;SDS011;55066;51.560;4.642;2023-07-22T10:30:11;7.07;;;3.33;;
68250;SDS011;55066;51.560;4.642;2023-07-22T10:32:39;6.63;;;2.42;;
68250;SDS011;55066;51.560;4.642;2023-07-22T10:35:13;5.03;;;2.30;;
68250;SDS011;55066;51.560;4.642;2023-07-22T10:37:45;6.85;;;2.70;;
68250;SDS011;55066;51.560;4.642;2023-07-22T10:42:57;8.00;;;2.50;;
68250;SDS011;55066;51.560;4.642;2023-07-22T10:45:25;8.77;;;2.38;;
68250;SDS011;55066;51.560;4.642;2023-07-22T10:50:37;5.15;;;2.17;;
68250;SDS011;55066;51.560;4.642;2023-07-22T10:53:03;6.80;;;2.63;;
68250;SDS011;55066;51.560;4.642;2023-07-22T10:55:29;7.97;;;2.30;;
68250;SDS011;55066;51.560;4.642;2023-07-22T10:57:54;6.63;;;2.47;;
68250;SDS011;55066;51.560;4.642;2023-07-22T11:00:21;5.72;;;2.10;;
68250;SDS011;55066;51.560;4.642;2023-07-22T11:02:47;7.47;;;2.40;;
68250;SDS011;55066;51.560;4.642;2023-07-22T11:05:49;4.47;;;2.17;;
68250;SDS011;55066;51.560;4.642;2023-07-22T11:08:16;5.45;;;2.10;;
68250;SDS011;55066;51.560;4.642;2023-07-22T11:10:54;5.53;;;2.47;;
68250;SDS011;55066;51.560;4.642;2023-07-22T11:13:29;5.80;;;2.45;;
68250;SDS011;55066;51.560;4.642;2023-07-22T11:15:58;4.70;;;2.10;;
68250;SDS011;55066;51.560;4.642;2023-07-22T11:18:37;4.80;;;2.00;;
68250;SDS011;55066;51.560;4.642;2023-07-22T11:21:07;7.03;;;2.45;;
68250;SDS011;55066;51.560;4.642;2023-07-22T11:23:35;5.85;;;2.30;;
68250;SDS011;55066;51.560;4.642;2023-07-22T11:26:02;8.33;;;1.97;;
68250;SDS011;55066;51.560;4.642;2023-07-22T11:28:28;10.25;;;2.25;;
68250;SDS011;55066;51.560;4.642;2023-07-22T11:30:55;6.05;;;2.10;;
68250;SDS011;55066;51.560;4.642;2023-07-22T11:33:20;5.63;;;2.20;;
68250;SDS011;55066;51.560;4.642;2023-07-22T11:35:46;6.40;;;2.20;;
68250;SDS011;55066;51.560;4.642;2023-07-22T11:38:12;4.97;;;1.80;;
68250;SDS011;55066;51.560;4.642;2023-07-22T11:40:37;5.30;;;2.13;;
68250;SDS011;55066;51.560;4.642;2023-07-22T11:43:03;5.33;;;2.17;;
68250;SDS011;55066;51.560;4.642;2023-07-22T11:45:31;4.43;;;1.80;;
68250;SDS011;55066;51.560;4.642;2023-07-22T11:47:57;4.15;;;2.00;;
68250;SDS011;55066;51.560;4.642;2023-07-22T11:50:32;7.93;;;2.43;;
68250;SDS011;55066;51.560;4.642;2023-07-22T11:52:58;5.20;;;2.00;;
68250;SDS011;55066;51.560;4.642;2023-07-22T11:55:24;4.40;;;1.90;;
68250;SDS011;55066;51.560;4.642;2023-07-22T11:57:52;5.33;;;2.30;;
68250;SDS011;55066;51.560;4.642;2023-07-22T12:00:19;5.72;;;2.20;;
68250;SDS011;55066;51.560;4.642;2023-07-22T12:02:45;9.18;;;2.40;;
68250;SDS011;55066;51.560;4.642;2023-07-22T12:05:10;7.40;;;2.27;;
68250;SDS011;55066;51.560;4.642;2023-07-22T12:07:36;4.18;;;2.15;;
68250;SDS011;55066;51.560;4.642;2023-07-22T12:10:03;6.00;;;1.80;;
68250;SDS011;55066;51.560;4.642;2023-07-22T12:15:11;4.10;;;2.10;;
68250;SDS011;55066;51.560;4.642;2023-07-22T12:17:56;4.35;;;1.75;;
68250;SDS011;55066;51.560;4.642;2023-07-22T12:20:28;4.95;;;1.98;;
68250;SDS011;55066;51.560;4.642;2023-07-22T12:22:55;4.50;;;1.70;;
68250;SDS011;55066;51.560;4.642;2023-07-22T12:25:22;5.40;;;2.10;;
68250;SDS011;55066;51.560;4.642;2023-07-22T12:27:47;5.72;;;2.10;;
68250;SDS011;55066;51.560;4.642;2023-07-22T12:30:13;3.43;;;1.83;;
68250;SDS011;55066;51.560;4.642;2023-07-22T12:32:39;6.10;;;2.10;;
68250;SDS011;55066;51.560;4.642;2023-07-22T12:35:05;6.43;;;2.17;;
68250;SDS011;55066;51.560;4.642;2023-07-22T12:37:31;6.00;;;2.08;;
68250;SDS011;55066;51.560;4.642;2023-07-22T12:39:56;4.18;;;1.80;;
68250;SDS011;55066;51.560;4.642;2023-07-22T12:42:22;6.60;;;2.40;;
68250;SDS011;55066;51.560;4.642;2023-07-22T12:44:47;4.17;;;2.00;;
68250;SDS011;55066;51.560;4.642;2023-07-22T12:47:13;4.82;;;2.50;;
68250;SDS011;55066;51.560;4.642;2023-07-22T12:49:38;5.20;;;2.23;;
68250;SDS011;55066;51.560;4.642;2023-07-22T12:52:04;5.37;;;2.37;;
68250;SDS011;55066;51.560;4.642;2023-07-22T12:54:34;6.65;;;2.20;;
68250;SDS011;55066;51.560;4.642;2023-07-22T12:57:02;4.88;;;2.10;;
68250;SDS011;55066;51.560;4.642;2023-07-22T12:59:28;5.37;;;2.30;;
68250;SDS011;55066;51.560;4.642;2023-07-22T13:01:53;5.53;;;2.40;;
68250;SDS011;55066;51.560;4.642;2023-07-22T13:04:19;4.57;;;2.20;;
68250;SDS011;55066;51.560;4.642;2023-07-22T13:06:46;8.98;;;2.42;;
68250;SDS011;55066;51.560;4.642;2023-07-22T13:09:11;5.40;;;1.90;;
68250;SDS011;55066;51.560;4.642;2023-07-22T13:11:37;6.00;;;1.97;;
68250;SDS011;55066;51.560;4.642;2023-07-22T13:14:02;8.17;;;1.97;;
68250;SDS011;55066;51.560;4.642;2023-07-22T13:16:28;5.35;;;2.28;;
68250;SDS011;55066;51.560;4.642;2023-07-22T13:18:53;4.87;;;1.90;;
68250;SDS011;55066;51.560;4.642;2023-07-22T13:21:19;5.88;;;1.70;;
68250;SDS011;55066;51.560;4.642;2023-07-22T13:23:44;4.93;;;1.90;;
68250;SDS011;55066;51.560;4.642;2023-07-22T13:26:10;4.27;;;1.67;;
68250;SDS011;55066;51.560;4.642;2023-07-22T13:28:35;3.90;;;1.93;;
68250;SDS011;55066;51.560;4.642;2023-07-22T13:31:00;5.27;;;2.17;;
68250;SDS011;55066;51.560;4.642;2023-07-22T13:33:26;3.80;;;2.15;;
68250;SDS011;55066;51.560;4.642;2023-07-22T13:35:51;6.60;;;1.90;;
68250;SDS011;55066;51.560;4.642;2023-07-22T13:38:17;4.77;;;1.73;;
68250;SDS011;55066;51.560;4.642;2023-07-22T13:40:42;6.20;;;2.23;;
68250;SDS011;55066;51.560;4.642;2023-07-22T13:43:08;3.50;;;1.70;;
68250;SDS011;55066;51.560;4.642;2023-07-22T13:45:34;3.75;;;1.75;;
68250;SDS011;55066;51.560;4.642;2023-07-22T13:48:00;4.47;;;2.00;;
68250;SDS011;55066;51.560;4.642;2023-07-22T13:50:25;4.03;;;2.00;;
68250;SDS011;55066;51.560;4.642;2023-07-22T13:52:51;4.68;;;2.13;;
68250;SDS011;55066;51.560;4.642;2023-07-22T13:55:17;5.27;;;1.70;;
68250;SDS011;55066;51.560;4.642;2023-07-22T13:57:42;4.80;;;1.60;;
68250;SDS011;55066;51.560;4.642;2023-07-22T14:00:08;5.32;;;1.65;;
68250;SDS011;55066;51.560;4.642;2023-07-22T14:02:37;4.15;;;1.83;;
68250;SDS011;55066;51.560;4.642;2023-07-22T14:05:03;7.57;;;1.90;;
68250;SDS011;55066;51.560;4.642;2023-07-22T14:07:29;3.80;;;1.70;;
68250;SDS011;55066;51.560;4.642;2023-07-22T14:09:55;5.97;;;1.90;;
68250;SDS011;55066;51.560;4.642;2023-07-22T14:12:20;3.13;;;1.83;;
68250;SDS011;55066;51.560;4.642;2023-07-22T14:14:46;5.00;;;1.77;;
68250;SDS011;55066;51.560;4.642;2023-07-22T14:17:11;7.10;;;1.90;;
68250;SDS011;55066;51.560;4.642;2023-07-22T14:19:37;6.53;;;1.90;;
68250;SDS011;55066;51.560;4.642;2023-07-22T14:22:02;4.13;;;1.85;;
68250;SDS011;55066;51.560;4.642;2023-07-22T14:24:29;3.87;;;1.77;;
68250;SDS011;55066;51.560;4.642;2023-07-22T14:26:54;4.57;;;1.80;;
68250;SDS011;55066;51.560;4.642;2023-07-22T14:29:20;4.57;;;1.80;;
68250;SDS011;55066;51.560;4.642;2023-07-22T14:31:46;4.95;;;2.28;;
68250;SDS011;55066;51.560;4.642;2023-07-22T14:34:11;4.00;;;1.70;;
68250;SDS011;55066;51.560;4.642;2023-07-22T14:36:37;5.47;;;2.17;;
68250;SDS011;55066;51.560;4.642;2023-07-22T14:39:02;3.83;;;2.08;;
68250;SDS011;55066;51.560;4.642;2023-07-22T14:41:29;3.70;;;1.73;;
68250;SDS011;55066;51.560;4.642;2023-07-22T14:43:55;4.65;;;2.05;;
68250;SDS011;55066;51.560;4.642;2023-07-22T14:46:20;3.70;;;2.10;;
68250;SDS011;55066;51.560;4.642;2023-07-22T14:48:46;4.37;;;2.13;;
68250;SDS011;55066;51.560;4.642;2023-07-22T14:51:11;7.33;;;2.10;;
68250;SDS011;55066;51.560;4.642;2023-07-22T14:53:37;7.53;;;2.97;;
68250;SDS011;55066;51.560;4.642;2023-07-22T14:56:02;9.27;;;3.83;;
68250;SDS011;55066;51.560;4.642;2023-07-22T14:58:28;26.83;;;10.75;;
68250;SDS011;55066;51.560;4.642;2023-07-22T15:00:53;23.77;;;9.00;;
68250;SDS011;55066;51.560;4.642;2023-07-22T15:03:19;7.83;;;2.40;;
68250;SDS011;55066;51.560;4.642;2023-07-22T15:05:45;5.28;;;2.00;;
68250;SDS011;55066;51.560;4.642;2023-07-22T15:08:10;5.17;;;2.20;;
68250;SDS011;55066;51.560;4.642;2023-07-22T15:10:35;4.47;;;2.27;;
68250;SDS011;55066;51.560;4.642;2023-07-22T15:13:01;12.82;;;5.10;;
68250;SDS011;55066;51.560;4.642;2023-07-22T15:15:27;10.48;;;3.75;;
68250;SDS011;55066;51.560;4.642;2023-07-22T15:17:53;5.07;;;1.97;;
68250;SDS011;55066;51.560;4.642;2023-07-22T15:20:18;15.20;;;9.63;;
68250;SDS011;55066;51.560;4.642;2023-07-22T15:22:44;14.57;;;6.27;;
68250;SDS011;55066;51.560;4.642;2023-07-22T15:25:09;6.63;;;3.60;;
68250;SDS011;55066;51.560;4.642;2023-07-22T15:27:35;6.97;;;3.57;;